sensor_id;sensor_type;location;lat;lon;timestamp;temperature;humidity
48208;DHT22;33997;53.278;9.708;2023-06-14T00:01:26;14.90;76.00
48208;DHT22;33997;53.278;9.708;2023-06-14T00:03:52;14.90;76.00
48208;DHT22;33997;53.278;9.708;2023-06-14T00:06:18;14.90;76.00
48208;DHT22;33997;53.278;9.708;2023-06-14T00:08:43;14.80;76.40
48208;DHT22;33997;53.278;9.708;2023-06-14T00:11:09;14.80;76.50
48208;DHT22;33997;53.278;9.708;2023-06-14T00:13:34;14.80;76.70
48208;DHT22;33997;53.278;9.708;2023-06-14T00:16:00;14.70;76.70
48208;DHT22;33997;53.278;9.708;2023-06-14T00:18:25;14.70;77.00
48208;DHT22;33997;53.278;9.708;2023-06-14T00:20:52;14.70;77.40
48208;DHT22;33997;53.278;9.708;2023-06-14T00:23:18;14.60;77.20
48208;DHT22;33997;53.278;9.708;2023-06-14T00:25:43;14.60;77.30
48208;DHT22;33997;53.278;9.708;2023-06-14T00:28:09;14.60;77.40
48208;DHT22;33997;53.278;9.708;2023-06-14T00:30:34;14.50;77.50
48208;DHT22;33997;53.278;9.708;2023-06-14T00:33:00;14.50;77.90
48208;DHT22;33997;53.278;9.708;2023-06-14T00:35:25;14.50;77.90
48208;DHT22;33997;53.278;9.708;2023-06-14T00:37:51;14.50;77.90
48208;DHT22;33997;53.278;9.708;2023-06-14T00:40:16;14.50;77.80
48208;DHT22;33997;53.278;9.708;2023-06-14T00:42:42;14.40;78.30
48208;DHT22;33997;53.278;9.708;2023-06-14T00:45:08;14.40;78.20
48208;DHT22;33997;53.278;9.708;2023-06-14T00:47:35;14.40;78.10
48208;DHT22;33997;53.278;9.708;2023-06-14T00:50:03;14.40;78.00
48208;DHT22;33997;53.278;9.708;2023-06-14T00:52:31;14.40;78.20
48208;DHT22;33997;53.278;9.708;2023-06-14T00:54:57;14.40;78.50
48208;DHT22;33997;53.278;9.708;2023-06-14T00:57:23;14.30;78.50
48208;DHT22;33997;53.278;9.708;2023-06-14T00:59:49;14.30;78.60
48208;DHT22;33997;53.278;9.708;2023-06-14T01:02:15;14.30;78.60
48208;DHT22;33997;53.278;9.708;2023-06-14T01:04:43;14.20;78.70
48208;DHT22;33997;53.278;9.708;2023-06-14T01:15:20;14.10;79.50
48208;DHT22;33997;53.278;9.708;2023-06-14T01:17:49;14.10;79.40
48208;DHT22;33997;53.278;9.708;2023-06-14T01:20:17;14.00;79.60
48208;DHT22;33997;53.278;9.708;2023-06-14T01:22:54;14.00;79.60
48208;DHT22;33997;53.278;9.708;2023-06-14T01:25:20;14.00;79.70
48208;DHT22;33997;53.278;9.708;2023-06-14T01:27:53;14.00;80.10
48208;DHT22;33997;53.278;9.708;2023-06-14T01:30:20;13.90;80.20
48208;DHT22;33997;53.278;9.708;2023-06-14T01:32:47;13.80;80.50
48208;DHT22;33997;53.278;9.708;2023-06-14T01:35:13;13.80;80.40
48208;DHT22;33997;53.278;9.708;2023-06-14T01:37:40;13.80;80.60
48208;DHT22;33997;53.278;9.708;2023-06-14T01:40:07;13.80;80.60
48208;DHT22;33997;53.278;9.708;2023-06-14T01:42:36;13.80;80.70
48208;DHT22;33997;53.278;9.708;2023-06-14T01:45:02;13.70;81.00
48208;DHT22;33997;53.278;9.708;2023-06-14T01:47:30;13.70;81.10
48208;DHT22;33997;53.278;9.708;2023-06-14T01:49:56;13.60;81.20
48208;DHT22;33997;53.278;9.708;2023-06-14T01:52:21;13.60;81.30
48208;DHT22;33997;53.278;9.708;2023-06-14T01:54:49;13.60;81.60
48208;DHT22;33997;53.278;9.708;2023-06-14T01:57:15;13.60;81.50
48208;DHT22;33997;53.278;9.708;2023-06-14T01:59:41;13.50;81.60
48208;DHT22;33997;53.278;9.708;2023-06-14T02:02:06;13.50;81.80
48208;DHT22;33997;53.278;9.708;2023-06-14T02:04:32;13.50;81.80
48208;DHT22;33997;53.278;9.708;2023-06-14T02:06:57;13.50;82.00
48208;DHT22;33997;53.278;9.708;2023-06-14T02:09:22;13.50;82.20
48208;DHT22;33997;53.278;9.708;2023-06-14T02:11:49;13.40;82.20
48208;DHT22;33997;53.278;9.708;2023-06-14T02:14:14;13.40;82.20
48208;DHT22;33997;53.278;9.708;2023-06-14T02:16:40;13.30;82.40
48208;DHT22;33997;53.278;9.708;2023-06-14T02:19:05;13.30;82.60
48208;DHT22;33997;53.278;9.708;2023-06-14T02:21:31;13.30;82.70
48208;DHT22;33997;53.278;9.708;2023-06-14T02:23:56;13.30;82.80
48208;DHT22;33997;53.278;9.708;2023-06-14T02:26:23;13.20;83.10
48208;DHT22;33997;53.278;9.708;2023-06-14T02:28:49;13.10;83.20
48208;DHT22;33997;53.278;9.708;2023-06-14T02:31:14;13.20;83.40
48208;DHT22;33997;53.278;9.708;2023-06-14T02:33:41;13.10;83.60
48208;DHT22;33997;53.278;9.708;2023-06-14T02:36:07;13.10;83.70
48208;DHT22;33997;53.278;9.708;2023-06-14T02:38:32;13.00;83.80
48208;DHT22;33997;53.278;9.708;2023-06-14T02:40:58;13.00;83.90
48208;DHT22;33997;53.278;9.708;2023-06-14T02:43:25;13.00;84.00
48208;DHT22;33997;53.278;9.708;2023-06-14T02:45:51;13.00;84.40
48208;DHT22;33997;53.278;9.708;2023-06-14T02:48:17;13.00;84.30
48208;DHT22;33997;53.278;9.708;2023-06-14T02:50:42;12.90;84.40
48208;DHT22;33997;53.278;9.708;2023-06-14T02:53:08;13.00;84.50
48208;DHT22;33997;53.278;9.708;2023-06-14T02:55:33;13.00;84.50
48208;DHT22;33997;53.278;9.708;2023-06-14T02:58:04;12.90;84.70
48208;DHT22;33997;53.278;9.708;2023-06-14T03:00:29;12.90;84.90
48208;DHT22;33997;53.278;9.708;2023-06-14T03:02:56;12.90;84.90
48208;DHT22;33997;53.278;9.708;2023-06-14T03:05:21;12.90;85.10
48208;DHT22;33997;53.278;9.708;2023-06-14T03:07:47;12.90;85.00
48208;DHT22;33997;53.278;9.708;2023-06-14T03:10:13;12.90;85.00
48208;DHT22;33997;53.278;9.708;2023-06-14T03:12:38;12.90;85.00
48208;DHT22;33997;53.278;9.708;2023-06-14T03:15:05;12.90;85.00
48208;DHT22;33997;53.278;9.708;2023-06-14T03:17:30;12.80;85.30
48208;DHT22;33997;53.278;9.708;2023-06-14T03:19:59;12.80;85.50
48208;DHT22;33997;53.278;9.708;2023-06-14T03:22:25;12.90;85.50
48208;DHT22;33997;53.278;9.708;2023-06-14T03:24:51;12.90;85.50
48208;DHT22;33997;53.278;9.708;2023-06-14T03:27:17;12.90;85.60
48208;DHT22;33997;53.278;9.708;2023-06-14T03:29:43;12.90;85.50
48208;DHT22;33997;53.278;9.708;2023-06-14T03:32:09;12.90;85.60
48208;DHT22;33997;53.278;9.708;2023-06-14T03:34:35;12.90;85.90
48208;DHT22;33997;53.278;9.708;2023-06-14T03:37:01;12.80;85.80
48208;DHT22;33997;53.278;9.708;2023-06-14T03:39:27;12.90;85.90
48208;DHT22;33997;53.278;9.708;2023-06-14T03:41:52;12.90;85.90
48208;DHT22;33997;53.278;9.708;2023-06-14T03:44:18;12.90;86.00
48208;DHT22;33997;53.278;9.708;2023-06-14T03:46:45;13.00;86.00
48208;DHT22;33997;53.278;9.708;2023-06-14T03:49:11;13.00;85.90
48208;DHT22;33997;53.278;9.708;2023-06-14T03:51:37;13.00;85.80
48208;DHT22;33997;53.278;9.708;2023-06-14T03:54:02;13.00;85.80
48208;DHT22;33997;53.278;9.708;2023-06-14T03:56:28;13.10;86.00
48208;DHT22;33997;53.278;9.708;2023-06-14T03:58:53;13.10;85.90
48208;DHT22;33997;53.278;9.708;2023-06-14T04:01:18;13.10;86.00
48208;DHT22;33997;53.278;9.708;2023-06-14T04:03:44;13.10;85.80
48208;DHT22;33997;53.278;9.708;2023-06-14T04:06:10;13.20;86.00
48208;DHT22;33997;53.278;9.708;2023-06-14T04:08:35;13.20;85.80
48208;DHT22;33997;53.278;9.708;2023-06-14T04:11:01;13.30;85.90
48208;DHT22;33997;53.278;9.708;2023-06-14T04:13:26;13.30;85.90
48208;DHT22;33997;53.278;9.708;2023-06-14T04:15:52;13.40;85.70
48208;DHT22;33997;53.278;9.708;2023-06-14T04:18:18;13.40;85.70
48208;DHT22;33997;53.278;9.708;2023-06-14T04:20:44;13.50;85.50
48208;DHT22;33997;53.278;9.708;2023-06-14T04:23:17;13.50;85.50
48208;DHT22;33997;53.278;9.708;2023-06-14T04:25:44;13.50;85.50
48208;DHT22;33997;53.278;9.708;2023-06-14T04:28:13;13.60;85.30
48208;DHT22;33997;53.278;9.708;2023-06-14T04:30:41;13.60;85.20
48208;DHT22;33997;53.278;9.708;2023-06-14T04:33:07;13.60;85.10
48208;DHT22;33997;53.278;9.708;2023-06-14T04:35:32;13.70;85.00
48208;DHT22;33997;53.278;9.708;2023-06-14T04:38:01;13.80;84.80
48208;DHT22;33997;53.278;9.708;2023-06-14T04:40:27;13.80;84.90
48208;DHT22;33997;53.278;9.708;2023-06-14T04:42:52;13.90;84.80
48208;DHT22;33997;53.278;9.708;2023-06-14T04:45:18;14.00;84.60
48208;DHT22;33997;53.278;9.708;2023-06-14T04:47:43;14.00;84.60
48208;DHT22;33997;53.278;9.708;2023-06-14T04:50:09;14.00;84.60
48208;DHT22;33997;53.278;9.708;2023-06-14T04:52:36;14.10;84.30
48208;DHT22;33997;53.278;9.708;2023-06-14T04:55:02;14.10;84.10
48208;DHT22;33997;53.278;9.708;2023-06-14T04:57:28;14.20;84.20
48208;DHT22;33997;53.278;9.708;2023-06-14T04:59:54;14.30;84.20
48208;DHT22;33997;53.278;9.708;2023-06-14T05:02:23;14.40;83.60
48208;DHT22;33997;53.278;9.708;2023-06-14T05:04:50;14.40;83.40
48208;DHT22;33997;53.278;9.708;2023-06-14T05:07:15;14.40;83.30
48208;DHT22;33997;53.278;9.708;2023-06-14T05:09:41;14.50;83.10
48208;DHT22;33997;53.278;9.708;2023-06-14T05:12:07;14.60;82.70
48208;DHT22;33997;53.278;9.708;2023-06-14T05:14:36;14.70;82.50
48208;DHT22;33997;53.278;9.708;2023-06-14T05:17:02;14.70;81.80
48208;DHT22;33997;53.278;9.708;2023-06-14T05:19:28;14.80;81.30
48208;DHT22;33997;53.278;9.708;2023-06-14T05:21:54;14.90;81.40
48208;DHT22;33997;53.278;9.708;2023-06-14T05:24:19;15.00;81.00
48208;DHT22;33997;53.278;9.708;2023-06-14T05:26:45;15.10;81.50
48208;DHT22;33997;53.278;9.708;2023-06-14T05:29:11;15.20;80.70
48208;DHT22;33997;53.278;9.708;2023-06-14T05:31:37;15.20;80.70
48208;DHT22;33997;53.278;9.708;2023-06-14T05:34:03;15.20;79.20
48208;DHT22;33997;53.278;9.708;2023-06-14T05:36:28;15.40;79.40
48208;DHT22;33997;53.278;9.708;2023-06-14T05:38:54;15.50;79.60
48208;DHT22;33997;53.278;9.708;2023-06-14T05:41:25;15.60;78.90
48208;DHT22;33997;53.278;9.708;2023-06-14T05:43:51;15.70;78.10
48208;DHT22;33997;53.278;9.708;2023-06-14T05:46:17;15.80;77.60
48208;DHT22;33997;53.278;9.708;2023-06-14T05:48:47;15.80;75.90
48208;DHT22;33997;53.278;9.708;2023-06-14T05:51:13;16.00;76.50
48208;DHT22;33997;53.278;9.708;2023-06-14T05:53:38;16.10;75.60
48208;DHT22;33997;53.278;9.708;2023-06-14T05:56:04;16.00;75.50
48208;DHT22;33997;53.278;9.708;2023-06-14T05:58:29;16.10;74.80
48208;DHT22;33997;53.278;9.708;2023-06-14T06:00:55;16.10;74.80
48208;DHT22;33997;53.278;9.708;2023-06-14T06:03:20;16.20;74.90
48208;DHT22;33997;53.278;9.708;2023-06-14T06:05:46;16.30;74.80
48208;DHT22;33997;53.278;9.708;2023-06-14T06:08:11;16.40;73.90
48208;DHT22;33997;53.278;9.708;2023-06-14T06:10:38;16.60;73.70
48208;DHT22;33997;53.278;9.708;2023-06-14T06:13:04;16.70;74.10
48208;DHT22;33997;53.278;9.708;2023-06-14T06:15:29;16.80;74.80
48208;DHT22;33997;53.278;9.708;2023-06-14T06:17:55;17.00;72.90
48208;DHT22;33997;53.278;9.708;2023-06-14T06:20:21;17.00;71.50
48208;DHT22;33997;53.278;9.708;2023-06-14T06:22:52;17.00;71.80
48208;DHT22;33997;53.278;9.708;2023-06-14T06:25:18;17.20;71.70
48208;DHT22;33997;53.278;9.708;2023-06-14T06:27:44;17.50;71.40
48208;DHT22;33997;53.278;9.708;2023-06-14T06:30:10;17.50;70.20
48208;DHT22;33997;53.278;9.708;2023-06-14T06:32:36;17.70;70.70
48208;DHT22;33997;53.278;9.708;2023-06-14T06:35:01;17.70;70.50
48208;DHT22;33997;53.278;9.708;2023-06-14T06:37:27;18.00;70.40
48208;DHT22;33997;53.278;9.708;2023-06-14T06:39:52;17.80;67.90
48208;DHT22;33997;53.278;9.708;2023-06-14T06:42:18;18.30;69.90
48208;DHT22;33997;53.278;9.708;2023-06-14T06:44:43;18.50;69.30
48208;DHT22;33997;53.278;9.708;2023-06-14T06:47:09;18.50;67.60
48208;DHT22;33997;53.278;9.708;2023-06-14T06:49:36;18.60;66.40
48208;DHT22;33997;53.278;9.708;2023-06-14T06:52:03;18.60;65.40
48208;DHT22;33997;53.278;9.708;2023-06-14T06:54:29;18.60;65.30
48208;DHT22;33997;53.278;9.708;2023-06-14T06:56:55;18.80;64.80
48208;DHT22;33997;53.278;9.708;2023-06-14T06:59:21;19.00;63.00
48208;DHT22;33997;53.278;9.708;2023-06-14T07:01:46;19.00;63.20
48208;DHT22;33997;53.278;9.708;2023-06-14T07:04:12;19.30;62.80
48208;DHT22;33997;53.278;9.708;2023-06-14T07:06:38;19.50;62.20
48208;DHT22;33997;53.278;9.708;2023-06-14T07:09:03;19.60;61.90
48208;DHT22;33997;53.278;9.708;2023-06-14T07:11:30;19.60;62.80
48208;DHT22;33997;53.278;9.708;2023-06-14T07:13:56;19.80;61.00
48208;DHT22;33997;53.278;9.708;2023-06-14T07:16:22;19.80;60.80
48208;DHT22;33997;53.278;9.708;2023-06-14T07:18:47;19.50;60.10
48208;DHT22;33997;53.278;9.708;2023-06-14T07:21:13;20.00;62.20
48208;DHT22;33997;53.278;9.708;2023-06-14T07:23:38;20.30;59.00
48208;DHT22;33997;53.278;9.708;2023-06-14T07:26:04;20.00;59.30
48208;DHT22;33997;53.278;9.708;2023-06-14T07:28:30;20.40;59.10
48208;DHT22;33997;53.278;9.708;2023-06-14T07:30:55;20.60;57.90
48208;DHT22;33997;53.278;9.708;2023-06-14T07:33:21;20.80;60.60
48208;DHT22;33997;53.278;9.708;2023-06-14T07:35:46;20.80;59.40
48208;DHT22;33997;53.278;9.708;2023-06-14T07:38:13;20.60;57.30
48208;DHT22;33997;53.278;9.708;2023-06-14T07:40:38;21.00;55.20
48208;DHT22;33997;53.278;9.708;2023-06-14T07:43:04;21.00;56.90
48208;DHT22;33997;53.278;9.708;2023-06-14T07:45:29;20.90;56.10
48208;DHT22;33997;53.278;9.708;2023-06-14T07:47:55;21.20;55.70
48208;DHT22;33997;53.278;9.708;2023-06-14T07:50:20;21.00;55.00
48208;DHT22;33997;53.278;9.708;2023-06-14T07:52:46;21.20;55.30
48208;DHT22;33997;53.278;9.708;2023-06-14T07:55:13;21.50;55.10
48208;DHT22;33997;53.278;9.708;2023-06-14T07:57:40;21.80;55.10
48208;DHT22;33997;53.278;9.708;2023-06-14T08:00:06;22.00;54.60
48208;DHT22;33997;53.278;9.708;2023-06-14T08:02:32;21.60;54.80
48208;DHT22;33997;53.278;9.708;2023-06-14T08:04:57;21.70;52.60
48208;DHT22;33997;53.278;9.708;2023-06-14T08:07:23;22.10;54.10
48208;DHT22;33997;53.278;9.708;2023-06-14T08:09:49;22.50;51.60
48208;DHT22;33997;53.278;9.708;2023-06-14T08:12:15;22.50;52.70
48208;DHT22;33997;53.278;9.708;2023-06-14T08:14:42;22.90;53.10
48208;DHT22;33997;53.278;9.708;2023-06-14T08:17:08;22.70;51.60
48208;DHT22;33997;53.278;9.708;2023-06-14T08:19:33;22.90;50.80
48208;DHT22;33997;53.278;9.708;2023-06-14T08:21:59;23.40;52.90
48208;DHT22;33997;53.278;9.708;2023-06-14T08:24:25;22.90;49.50
48208;DHT22;33997;53.278;9.708;2023-06-14T08:26:52;22.90;49.40
48208;DHT22;33997;53.278;9.708;2023-06-14T08:29:18;22.80;52.90
48208;DHT22;33997;53.278;9.708;2023-06-14T08:31:43;22.80;52.80
48208;DHT22;33997;53.278;9.708;2023-06-14T08:34:09;23.40;52.90
48208;DHT22;33997;53.278;9.708;2023-06-14T08:36:35;23.50;49.70
48208;DHT22;33997;53.278;9.708;2023-06-14T08:39:01;23.60;48.00
48208;DHT22;33997;53.278;9.708;2023-06-14T08:41:28;23.80;50.40
48208;DHT22;33997;53.278;9.708;2023-06-14T08:43:55;24.10;50.90
48208;DHT22;33997;53.278;9.708;2023-06-14T08:46:21;23.90;47.60
48208;DHT22;33997;53.278;9.708;2023-06-14T08:48:49;23.80;46.00
48208;DHT22;33997;53.278;9.708;2023-06-14T08:51:18;24.00;48.20
48208;DHT22;33997;53.278;9.708;2023-06-14T08:53:43;23.50;47.90
48208;DHT22;33997;53.278;9.708;2023-06-14T08:56:09;23.00;48.40
48208;DHT22;33997;53.278;9.708;2023-06-14T08:58:49;23.70;49.30
48208;DHT22;33997;53.278;9.708;2023-06-14T09:01:14;24.20;46.40
48208;DHT22;33997;53.278;9.708;2023-06-14T09:03:42;24.30;46.40
48208;DHT22;33997;53.278;9.708;2023-06-14T09:06:08;24.50;48.30
48208;DHT22;33997;53.278;9.708;2023-06-14T09:08:42;24.50;44.80
48208;DHT22;33997;53.278;9.708;2023-06-14T09:11:11;24.40;46.90
48208;DHT22;33997;53.278;9.708;2023-06-14T09:13:37;24.70;47.80
48208;DHT22;33997;53.278;9.708;2023-06-14T09:16:03;24.60;45.50
48208;DHT22;33997;53.278;9.708;2023-06-14T09:18:58;25.40;46.70
48208;DHT22;33997;53.278;9.708;2023-06-14T09:21:24;24.70;44.50
48208;DHT22;33997;53.278;9.708;2023-06-14T09:23:49;25.20;45.80
48208;DHT22;33997;53.278;9.708;2023-06-14T09:26:17;25.20;45.00
48208;DHT22;33997;53.278;9.708;2023-06-14T09:28:47;25.40;44.40
48208;DHT22;33997;53.278;9.708;2023-06-14T09:31:14;25.40;43.40
48208;DHT22;33997;53.278;9.708;2023-06-14T09:33:44;25.60;42.50
48208;DHT22;33997;53.278;9.708;2023-06-14T09:36:21;25.50;43.80
48208;DHT22;33997;53.278;9.708;2023-06-14T09:39:01;25.20;44.30
48208;DHT22;33997;53.278;9.708;2023-06-14T09:41:40;25.60;46.30
48208;DHT22;33997;53.278;9.708;2023-06-14T09:44:07;24.70;43.80
48208;DHT22;33997;53.278;9.708;2023-06-14T09:46:34;25.10;44.80
48208;DHT22;33997;53.278;9.708;2023-06-14T09:49:01;25.70;43.10
48208;DHT22;33997;53.278;9.708;2023-06-14T09:51:27;25.00;43.80
48208;DHT22;33997;53.278;9.708;2023-06-14T09:53:58;25.30;42.80
48208;DHT22;33997;53.278;9.708;2023-06-14T09:56:32;24.70;42.80
48208;DHT22;33997;53.278;9.708;2023-06-14T09:58:59;25.10;44.40
48208;DHT22;33997;53.278;9.708;2023-06-14T10:01:30;24.40;45.00
48208;DHT22;33997;53.278;9.708;2023-06-14T10:06:26;24.50;45.90
48208;DHT22;33997;53.278;9.708;2023-06-14T10:08:56;24.10;44.80
48208;DHT22;33997;53.278;9.708;2023-06-14T10:11:23;24.90;44.90
48208;DHT22;33997;53.278;9.708;2023-06-14T10:13:49;25.60;44.40
48208;DHT22;33997;53.278;9.708;2023-06-14T10:16:21;25.90;43.10
48208;DHT22;33997;53.278;9.708;2023-06-14T10:18:53;26.30;42.30
48208;DHT22;33997;53.278;9.708;2023-06-14T10:22:09;26.10;41.50
48208;DHT22;33997;53.278;9.708;2023-06-14T10:24:43;26.10;43.40
48208;DHT22;33997;53.278;9.708;2023-06-14T10:27:09;26.30;42.40
48208;DHT22;33997;53.278;9.708;2023-06-14T10:32:19;26.70;42.30
48208;DHT22;33997;53.278;9.708;2023-06-14T10:34:45;27.00;38.90
48208;DHT22;33997;53.278;9.708;2023-06-14T10:37:12;27.50;40.20
48208;DHT22;33997;53.278;9.708;2023-06-14T10:39:41;27.40;39.50
48208;DHT22;33997;53.278;9.708;2023-06-14T10:42:07;26.60;38.80
48208;DHT22;33997;53.278;9.708;2023-06-14T10:44:33;26.80;40.40
48208;DHT22;33997;53.278;9.708;2023-06-14T10:47:00;27.60;39.80
48208;DHT22;33997;53.278;9.708;2023-06-14T10:49:42;27.30;39.20
48208;DHT22;33997;53.278;9.708;2023-06-14T10:52:12;27.10;39.10
48208;DHT22;33997;53.278;9.708;2023-06-14T10:57:27;27.30;39.40
48208;DHT22;33997;53.278;9.708;2023-06-14T10:59:53;26.60;38.20
48208;DHT22;33997;53.278;9.708;2023-06-14T11:04:50;27.00;38.40
48208;DHT22;33997;53.278;9.708;2023-06-14T11:12:56;27.90;39.20
48208;DHT22;33997;53.278;9.708;2023-06-14T11:15:31;27.80;37.30
48208;DHT22;33997;53.278;9.708;2023-06-14T11:17:57;27.70;37.50
48208;DHT22;33997;53.278;9.708;2023-06-14T11:20:26;28.20;35.40
48208;DHT22;33997;53.278;9.708;2023-06-14T11:22:53;28.00;36.30
48208;DHT22;33997;53.278;9.708;2023-06-14T11:25:18;28.50;36.50
48208;DHT22;33997;53.278;9.708;2023-06-14T11:27:44;27.50;38.00
48208;DHT22;33997;53.278;9.708;2023-06-14T11:30:11;27.20;37.90
48208;DHT22;33997;53.278;9.708;2023-06-14T11:32:37;27.40;37.50
48208;DHT22;33997;53.278;9.708;2023-06-14T11:35:03;27.50;35.70
48208;DHT22;33997;53.278;9.708;2023-06-14T11:37:30;27.60;36.40
48208;DHT22;33997;53.278;9.708;2023-06-14T11:39:57;28.00;35.70
48208;DHT22;33997;53.278;9.708;2023-06-14T11:42:24;28.20;36.00
48208;DHT22;33997;53.278;9.708;2023-06-14T11:44:50;28.50;34.70
48208;DHT22;33997;53.278;9.708;2023-06-14T11:47:15;28.20;35.10
48208;DHT22;33997;53.278;9.708;2023-06-14T11:49:41;29.10;34.80
48208;DHT22;33997;53.278;9.708;2023-06-14T11:52:07;29.90;33.30
48208;DHT22;33997;53.278;9.708;2023-06-14T11:54:33;30.50;34.50
48208;DHT22;33997;53.278;9.708;2023-06-14T11:56:58;30.40;34.20
48208;DHT22;33997;53.278;9.708;2023-06-14T11:59:24;30.20;35.40
48208;DHT22;33997;53.278;9.708;2023-06-14T12:01:52;30.20;33.20
48208;DHT22;33997;53.278;9.708;2023-06-14T12:04:29;29.30;34.80
48208;DHT22;33997;53.278;9.708;2023-06-14T12:06:54;28.40;34.50
48208;DHT22;33997;53.278;9.708;2023-06-14T12:09:21;27.90;37.50
48208;DHT22;33997;53.278;9.708;2023-06-14T12:11:49;26.90;38.00
48208;DHT22;33997;53.278;9.708;2023-06-14T12:14:14;27.00;39.30
48208;DHT22;33997;53.278;9.708;2023-06-14T12:16:41;26.50;39.40
48208;DHT22;33997;53.278;9.708;2023-06-14T12:19:16;26.60;39.50
48208;DHT22;33997;53.278;9.708;2023-06-14T12:21:42;26.50;40.00
48208;DHT22;33997;53.278;9.708;2023-06-14T12:24:09;26.30;39.60
48208;DHT22;33997;53.278;9.708;2023-06-14T12:26:41;26.40;39.00
48208;DHT22;33997;53.278;9.708;2023-06-14T12:29:07;26.40;40.60
48208;DHT22;33997;53.278;9.708;2023-06-14T12:31:33;26.30;40.10
48208;DHT22;33997;53.278;9.708;2023-06-14T12:33:58;26.30;40.00
48208;DHT22;33997;53.278;9.708;2023-06-14T12:36:24;27.00;39.30
48208;DHT22;33997;53.278;9.708;2023-06-14T12:38:51;28.10;38.70
48208;DHT22;33997;53.278;9.708;2023-06-14T12:41:19;29.30;36.40
48208;DHT22;33997;53.278;9.708;2023-06-14T12:43:46;30.20;34.80
48208;DHT22;33997;53.278;9.708;2023-06-14T12:46:11;30.00;33.00
48208;DHT22;33997;53.278;9.708;2023-06-14T12:48:37;29.20;35.20
48208;DHT22;33997;53.278;9.708;2023-06-14T12:51:02;28.30;36.50
48208;DHT22;33997;53.278;9.708;2023-06-14T12:53:28;27.30;37.70
48208;DHT22;33997;53.278;9.708;2023-06-14T12:55:53;26.90;37.30
48208;DHT22;33997;53.278;9.708;2023-06-14T12:58:19;26.80;37.70
48208;DHT22;33997;53.278;9.708;2023-06-14T13:00:49;27.00;37.00
48208;DHT22;33997;53.278;9.708;2023-06-14T13:03:14;26.80;37.10
48208;DHT22;33997;53.278;9.708;2023-06-14T13:05:40;26.40;38.50
48208;DHT22;33997;53.278;9.708;2023-06-14T13:08:07;26.20;39.00
48208;DHT22;33997;53.278;9.708;2023-06-14T13:10:34;26.30;39.10
48208;DHT22;33997;53.278;9.708;2023-06-14T13:12:59;26.30;39.80
48208;DHT22;33997;53.278;9.708;2023-06-14T13:15:25;26.30;40.00
48208;DHT22;33997;53.278;9.708;2023-06-14T13:17:51;26.20;40.10
48208;DHT22;33997;53.278;9.708;2023-06-14T13:20:16;26.00;41.90
48208;DHT22;33997;53.278;9.708;2023-06-14T13:22:42;25.90;41.00
48208;DHT22;33997;53.278;9.708;2023-06-14T13:25:08;25.50;40.60
48208;DHT22;33997;53.278;9.708;2023-06-14T13:27:33;25.60;41.60
48208;DHT22;33997;53.278;9.708;2023-06-14T13:29:59;25.50;41.20
48208;DHT22;33997;53.278;9.708;2023-06-14T13:32:24;26.20;41.30
48208;DHT22;33997;53.278;9.708;2023-06-14T13:34:50;26.20;40.90
48208;DHT22;33997;53.278;9.708;2023-06-14T13:37:15;26.40;39.20
48208;DHT22;33997;53.278;9.708;2023-06-14T13:39:41;27.70;36.50
48208;DHT22;33997;53.278;9.708;2023-06-14T13:42:07;28.80;35.50
48208;DHT22;33997;53.278;9.708;2023-06-14T13:44:32;30.00;33.80
48208;DHT22;33997;53.278;9.708;2023-06-14T13:46:58;30.90;33.60
48208;DHT22;33997;53.278;9.708;2023-06-14T13:49:23;31.70;29.80
48208;DHT22;33997;53.278;9.708;2023-06-14T13:51:49;32.40;30.30
48208;DHT22;33997;53.278;9.708;2023-06-14T13:54:14;32.40;29.50
48208;DHT22;33997;53.278;9.708;2023-06-14T13:56:41;33.30;27.90
48208;DHT22;33997;53.278;9.708;2023-06-14T13:59:06;33.00;27.40
48208;DHT22;33997;53.278;9.708;2023-06-14T14:01:32;33.10;28.20
48208;DHT22;33997;53.278;9.708;2023-06-14T14:03:57;33.50;26.20
48208;DHT22;33997;53.278;9.708;2023-06-14T14:06:24;33.90;27.50
48208;DHT22;33997;53.278;9.708;2023-06-14T14:08:50;34.30;26.70
48208;DHT22;33997;53.278;9.708;2023-06-14T14:11:16;34.60;26.30
48208;DHT22;33997;53.278;9.708;2023-06-14T14:13:41;34.10;27.00
48208;DHT22;33997;53.278;9.708;2023-06-14T14:16:08;33.40;27.80
48208;DHT22;33997;53.278;9.708;2023-06-14T14:18:33;32.10;29.40
48208;DHT22;33997;53.278;9.708;2023-06-14T14:20:59;32.00;30.00
48208;DHT22;33997;53.278;9.708;2023-06-14T14:23:25;32.20;30.50
48208;DHT22;33997;53.278;9.708;2023-06-14T14:25:51;30.50;32.90
48208;DHT22;33997;53.278;9.708;2023-06-14T14:28:16;29.50;33.10
48208;DHT22;33997;53.278;9.708;2023-06-14T14:30:44;29.00;34.50
48208;DHT22;33997;53.278;9.708;2023-06-14T14:33:11;28.10;35.80
48208;DHT22;33997;53.278;9.708;2023-06-14T14:35:44;28.30;35.80
48208;DHT22;33997;53.278;9.708;2023-06-14T14:38:13;28.10;35.10
48208;DHT22;33997;53.278;9.708;2023-06-14T14:40:41;28.90;34.40
48208;DHT22;33997;53.278;9.708;2023-06-14T14:43:06;30.40;32.30
48208;DHT22;33997;53.278;9.708;2023-06-14T14:45:32;31.00;29.00
48208;DHT22;33997;53.278;9.708;2023-06-14T14:47:57;32.50;29.40
48208;DHT22;33997;53.278;9.708;2023-06-14T14:50:24;33.10;27.20
48208;DHT22;33997;53.278;9.708;2023-06-14T14:52:50;32.50;28.50
48208;DHT22;33997;53.278;9.708;2023-06-14T14:55:15;33.40;29.00
48208;DHT22;33997;53.278;9.708;2023-06-14T14:57:41;33.70;29.60
48208;DHT22;33997;53.278;9.708;2023-06-14T15:00:07;34.30;29.10
48208;DHT22;33997;53.278;9.708;2023-06-14T15:02:33;34.40;28.20
48208;DHT22;33997;53.278;9.708;2023-06-14T15:04:58;34.20;27.60
48208;DHT22;33997;53.278;9.708;2023-06-14T15:07:27;34.70;27.50
48208;DHT22;33997;53.278;9.708;2023-06-14T15:09:53;34.70;26.70
48208;DHT22;33997;53.278;9.708;2023-06-14T15:12:18;34.90;25.90
48208;DHT22;33997;53.278;9.708;2023-06-14T15:14:45;35.00;26.30
48208;DHT22;33997;53.278;9.708;2023-06-14T15:17:11;35.20;26.10
48208;DHT22;33997;53.278;9.708;2023-06-14T15:19:36;35.10;26.20
48208;DHT22;33997;53.278;9.708;2023-06-14T15:22:02;35.00;25.30
48208;DHT22;33997;53.278;9.708;2023-06-14T15:24:27;35.00;26.30
48208;DHT22;33997;53.278;9.708;2023-06-14T15:26:53;34.90;27.60
48208;DHT22;33997;53.278;9.708;2023-06-14T15:29:18;35.10;25.80
48208;DHT22;33997;53.278;9.708;2023-06-14T15:31:44;34.90;26.50
48208;DHT22;33997;53.278;9.708;2023-06-14T15:34:10;34.70;26.80
48208;DHT22;33997;53.278;9.708;2023-06-14T15:36:35;34.20;28.00
48208;DHT22;33997;53.278;9.708;2023-06-14T15:39:01;34.60;28.10
48208;DHT22;33997;53.278;9.708;2023-06-14T15:41:26;35.20;27.50
48208;DHT22;33997;53.278;9.708;2023-06-14T15:43:52;34.70;28.30
48208;DHT22;33997;53.278;9.708;2023-06-14T15:46:20;32.40;29.30
48208;DHT22;33997;53.278;9.708;2023-06-14T15:48:46;31.50;31.40
48208;DHT22;33997;53.278;9.708;2023-06-14T15:51:12;31.50;31.70